M I D A S
Marine Information and Data Acquisition System
Tripno 1616 of the Zeeleeuw from 2008-11-26 07:43:14 to 2008-11-26 14:49:38
Back to CruiseResearch ActivitiesStationsMapUnderway DataData graphs

EquipmentUnitsComment
TimeDGPSUTC
LatitudeDGPSDM.mWGS84
LongitudeDGPSDM.mWGS84
HeadingGyrodeg 
SOGDGPSknotsSpeed over ground
COGDGPSdegCourse over ground
DepthEcho soundermeters200 kHz
Missing or incorrect values are displayed as -999
Navigation data collected by the RV Zeeleeuw from 2008-11-26 07:02:40 to 2008-11-26 14:51:00
Time Latitude Longitude Heading SOG COG Depth
2008-11-26 07:03:45 51°13.626 2°56.049 122.6 -999 136 7.2
2008-11-26 07:04:45 51°13.625 2°56.049 121.5 0.1 172 7.1
2008-11-26 07:05:45 51°13.625 2°56.049 122.4 -999 45 7.1
2008-11-26 07:06:45 51°13.625 2°56.049 123.4 0.1 125 5.4
2008-11-26 07:07:45 51°13.625 2°56.049 122.4 -999 152 7.2
2008-11-26 07:08:45 51°13.624 2°56.049 121 -999 24 5.3
2008-11-26 07:09:45 51°13.623 2°56.049 123.4 -999 184 7.3
2008-11-26 07:10:45 51°13.623 2°56.049 120.6 0.1 149 7.2
2008-11-26 07:11:45 51°13.623 2°56.049 123 -999 323 7.2
2008-11-26 07:12:45 51°13.623 2°56.048 123.1 -999 132 7.2
2008-11-26 07:13:45 51°13.623 2°56.048 122.4 -999 270 7.2
2008-11-26 07:14:44 51°13.624 2°56.048 121.3 -999 109 7.2
2008-11-26 07:15:43 51°13.625 2°56.048 122.8 -999 233 5.4
2008-11-26 07:16:43 51°13.626 2°56.048 121.8 -999 164 7.3
2008-11-26 07:17:43 51°13.626 2°56.048 121.3 -999 157 7.2
2008-11-26 07:18:43 51°13.625 2°56.048 122.1 -999 174 7.2
2008-11-26 07:19:43 51°13.625 2°56.049 121.6 -999 136 7.3
2008-11-26 07:20:44 51°13.624 2°56.048 122.6 -999 243 7.2
2008-11-26 07:21:44 51°13.625 2°56.048 121.9 -999 38 7.3
2008-11-26 07:22:44 51°13.623 2°56.048 122.1 -999 306 7.2
2008-11-26 07:23:44 51°13.623 2°56.047 121.3 -999 198 -999
2008-11-26 07:24:44 51°13.623 2°56.047 123 -999 323 -999
2008-11-26 07:25:44 51°13.625 2°56.047 121.6 -999 72 7.3
2008-11-26 07:26:44 51°13.623 2°56.046 122.1 -999 232 7.3
2008-11-26 07:27:45 51°13.623 2°56.047 122.3 -999 189 5.4
2008-11-26 07:28:45 51°13.622 2°56.046 123.4 -999 13 7.5
2008-11-26 07:29:45 51°13.625 2°56.047 123.7 -999 29 7.3
2008-11-26 07:30:44 51°13.623 2°56.048 123.3 -999 330 5.5
2008-11-26 07:31:45 51°13.625 2°56.048 122.6 -999 318 7.5
2008-11-26 07:32:45 51°13.625 2°56.048 121.8 -999 172 7.5
2008-11-26 07:33:45 51°13.624 2°56.048 122.6 -999 129 7.4
2008-11-26 07:34:45 51°13.624 2°56.048 122.8 0.1 155 5.5
2008-11-26 07:35:45 51°13.623 2°56.047 123 -999 357 7.5
2008-11-26 07:36:45 51°13.624 2°56.047 123.1 -999 215 7.4
2008-11-26 07:37:44 51°13.624 2°56.046 123.6 -999 283 7.4
2008-11-26 07:38:45 51°13.624 2°56.046 123.6 -999 325 7.4
2008-11-26 07:39:44 51°13.625 2°56.047 123.9 -999 209 5.5
2008-11-26 07:40:45 51°13.625 2°56.047 123.8 -999 246 5.5
2008-11-26 07:41:44 51°13.625 2°56.047 124 -999 208 7.4
2008-11-26 07:42:45 51°13.622 2°56.047 124.2 -999 237 5.5
2008-11-26 07:43:45 51°13.624 2°56.048 124.9 0.1 94 5.5
2008-11-26 07:44:45 51°13.624 2°56.047 118.6 0.1 194 7.4
2008-11-26 07:45:45 51°13.623 2°56.047 109 -999 204 7.4
2008-11-26 07:46:45 51°13.628 2°56.027 105.6 2.6 292 -999
2008-11-26 07:47:45 51°13.652 2°55.932 112 4.5 293 -999
2008-11-26 07:48:45 51°13.68 2°55.837 112.7 3.7 297 -999
2008-11-26 07:49:45 51°13.7 2°55.753 92.6 2.8 277 13.3
2008-11-26 07:50:45 51°13.698 2°55.714 70.9 0.3 268 14.7
2008-11-26 07:51:44 51°13.727 2°55.729 4.5 3.6 349 12.4
2008-11-26 07:52:44 51°13.819 2°55.646 330.5 7.9 332 10.7
2008-11-26 07:53:44 51°13.946 2°55.543 333.8 8.8 334 10.8
2008-11-26 07:54:44 51°14.078 2°55.444 335.5 8.9 335 10.8
2008-11-26 07:55:44 51°14.206 2°55.329 327.9 9 324 11
2008-11-26 07:56:42 51°14.317 2°55.161 312.7 10.3 312 10.5
2008-11-26 07:57:41 51°14.435 2°54.969 316.1 10.6 315 10.5
2008-11-26 07:58:41 51°14.579 2°54.786 327.7 11.2 328 9.8
2008-11-26 07:59:41 51°14.748 2°54.642 334.4 11.9 331 9.8
2008-11-26 08:00:41 51°14.919 2°54.491 333.7 11.8 330 9.7
2008-11-26 08:01:41 51°15.084 2°54.328 331.6 11.6 327 10.2
2008-11-26 08:02:41 51°15.245 2°54.155 330.2 11.5 326 10.6
2008-11-26 08:03:41 51°15.408 2°53.986 330.7 11.7 327 11.3
2008-11-26 08:04:41 51°15.571 2°53.813 330.6 11.8 326 11.6
2008-11-26 08:05:41 51°15.734 2°53.647 333.7 11.6 327 11
2008-11-26 08:06:41 51°15.899 2°53.487 334.6 11.7 332 11.6
2008-11-26 08:07:41 51°16.066 2°53.331 333.5 11.6 330 11.6
2008-11-26 08:08:41 51°16.233 2°53.177 333.6 11.5 331 11.6
2008-11-26 08:09:41 51°16.398 2°53.026 332.7 11.5 330 12.1
2008-11-26 08:10:41 51°16.567 2°52.88 335.1 11.6 332 11.7
2008-11-26 08:11:41 51°16.74 2°52.748 337.4 11.3 334 10.1
2008-11-26 08:12:41 51°16.905 2°52.609 336.1 11.2 330 9.8
2008-11-26 08:13:41 51°17.065 2°52.471 338.5 10.7 334 9.8
2008-11-26 08:14:41 51°17.228 2°52.342 337.7 11 333 10.5
2008-11-26 08:15:41 51°17.398 2°52.243 351 10.9 347 10.8
2008-11-26 08:16:41 51°17.577 2°52.197 357.1 10.9 352 10.5
2008-11-26 08:17:41 51°17.759 2°52.166 358.3 10.7 355 10.4
2008-11-26 08:18:41 51°17.937 2°52.132 358 10.6 352 10.2
2008-11-26 08:19:41 51°18.114 2°52.096 0.2 10.6 356 10.7
2008-11-26 08:20:41 51°18.291 2°52.066 359.3 10.8 353 11.1
2008-11-26 08:21:41 51°18.472 2°52.037 357 10.8 354 11.7
2008-11-26 08:22:41 51°18.653 2°51.998 355.5 11 353 12.9
2008-11-26 08:23:41 51°18.836 2°51.961 356.9 11 353 13.5
2008-11-26 08:24:41 51°19.02 2°51.927 356.7 11.2 352 14.8
2008-11-26 08:25:41 51°19.203 2°51.881 357.1 11 352 15.3
2008-11-26 08:26:41 51°19.384 2°51.84 356.6 11 353 15.7
2008-11-26 08:27:41 51°19.565 2°51.8 356.7 11.1 351 16.1
2008-11-26 08:28:41 51°19.747 2°51.761 357.8 10.9 354 16.1
2008-11-26 08:29:41 51°19.932 2°51.738 357.5 11.2 357 15.4
2008-11-26 08:30:41 51°20.119 2°51.716 358.4 11.2 357 13.4
2008-11-26 08:31:41 51°20.307 2°51.698 357.5 11.3 355 13.8
2008-11-26 08:32:41 51°20.496 2°51.674 358.9 11.4 355 14.5
2008-11-26 08:33:41 51°20.683 2°51.647 357.8 11.4 354 15.3
2008-11-26 08:34:41 51°20.87 2°51.621 359.2 11.3 355 16.9
2008-11-26 08:35:41 51°21.055 2°51.6 358.6 11.2 357 18.8
2008-11-26 08:36:41 51°21.243 2°51.576 359 11.4 356 21.5
2008-11-26 08:37:41 51°21.429 2°51.55 356.8 11.1 355 22.8
2008-11-26 08:38:41 51°21.619 2°51.527 357.9 11.5 355 24.3
2008-11-26 08:39:41 51°21.807 2°51.503 357 11.4 354 24.6
2008-11-26 08:40:41 51°21.994 2°51.47 357 11.3 354 24.3
2008-11-26 08:41:41 51°22.182 2°51.44 356.8 11.2 354 23.9
2008-11-26 08:42:41 51°22.364 2°51.405 356.2 11.2 354 24
2008-11-26 08:43:41 51°22.55 2°51.374 356 11.2 353 23.6
2008-11-26 08:44:41 51°22.732 2°51.345 355.3 11.4 355 23.5
2008-11-26 08:45:41 51°22.921 2°51.318 356.9 11.4 356 21.5
2008-11-26 08:46:41 51°23.106 2°51.288 356.1 11.1 353 17.2
2008-11-26 08:47:41 51°23.29 2°51.26 356.6 11.1 357 15.3
2008-11-26 08:48:41 51°23.472 2°51.231 356.7 11.1 354 16.3
2008-11-26 08:49:41 51°23.656 2°51.201 355.3 11.1 354 17.5
2008-11-26 08:50:41 51°23.838 2°51.173 356.5 10.9 354 19.7
2008-11-26 08:51:41 51°24.019 2°51.14 357.1 10.7 356 20.9
2008-11-26 08:52:41 51°24.202 2°51.107 356.2 11.2 356 22.7
2008-11-26 08:53:41 51°24.387 2°51.075 357.3 11.3 354 22.8
2008-11-26 08:54:41 51°24.57 2°51.042 356.7 11 355 23
2008-11-26 08:55:41 51°24.755 2°51.009 356.5 10.9 353 23.6
2008-11-26 08:56:41 51°24.936 2°50.974 355.6 11 353 23.4
2008-11-26 08:57:41 51°25.119 2°50.944 355.9 11 357 23.3
2008-11-26 08:58:41 51°25.304 2°50.913 356.4 11.1 353 23.2
2008-11-26 08:59:41 51°25.487 2°50.884 355.5 11.1 354 23.9
2008-11-26 09:00:41 51°25.67 2°50.857 356.3 10.6 355 24
2008-11-26 09:01:41 51°25.853 2°50.833 356.6 11.2 356 23.9
2008-11-26 09:02:41 51°26.036 2°50.812 357.3 11 357 24.4
2008-11-26 09:03:41 51°26.22 2°50.787 355.5 11.1 353 24.2
2008-11-26 09:04:41 51°26.403 2°50.762 356.6 10.7 354 23.9
2008-11-26 09:05:41 51°26.589 2°50.74 356.6 11.2 355 24.4
2008-11-26 09:06:41 51°26.77 2°50.717 356.3 11 355 24
2008-11-26 09:07:41 51°26.955 2°50.692 356.3 10.9 356 18.9
2008-11-26 09:08:41 51°27.138 2°50.667 356.5 10.9 355 20.5
2008-11-26 09:09:41 51°27.318 2°50.641 356.3 10.9 356 21.6
2008-11-26 09:10:41 51°27.499 2°50.604 356.2 10.8 354 23.5
2008-11-26 09:11:41 51°27.683 2°50.575 356.3 11.4 355 25.4
2008-11-26 09:12:41 51°27.868 2°50.551 356.4 11.2 356 27.8
2008-11-26 09:13:41 51°28.052 2°50.524 355.8 10.9 354 28.1
2008-11-26 09:14:41 51°28.238 2°50.499 356.7 11.2 355 28.5
2008-11-26 09:15:41 51°28.425 2°50.477 356.9 11.3 355 28.5
2008-11-26 09:16:41 51°28.611 2°50.457 355.9 11.1 356 27.9
2008-11-26 09:17:41 51°28.796 2°50.447 2.8 11.1 3 27.4
2008-11-26 09:18:41 51°28.969 2°50.545 24.5 11.4 27 28.7
2008-11-26 09:19:41 51°29.137 2°50.687 27.2 11.2 32 28.6
2008-11-26 09:20:41 51°29.285 2°50.883 40.4 11.6 44 29.4
2008-11-26 09:21:41 51°29.424 2°51.101 43.2 11.7 43 28.6
2008-11-26 09:22:41 51°29.556 2°51.327 48.7 11.6 52 30.4
2008-11-26 09:23:41 51°29.67 2°51.582 51.7 11.7 53 32
2008-11-26 09:24:41 51°29.785 2°51.837 50.2 11.7 51 30.9
2008-11-26 09:25:41 51°29.898 2°52.094 53.5 11.7 59 32
2008-11-26 09:26:41 51°30.004 2°52.363 56.2 12 59 29.7
2008-11-26 09:27:41 51°30.106 2°52.638 60.1 12.1 64 31.2
2008-11-26 09:28:41 51°30.18 2°52.927 67 11.5 70 30.3
2008-11-26 09:29:41 51°30.246 2°53.214 68 11.4 69 31.2
2008-11-26 09:30:41 51°30.313 2°53.504 66.3 11.6 71 32.2
2008-11-26 09:31:41 51°30.384 2°53.79 65.2 11.6 67 34.6
2008-11-26 09:32:41 51°30.453 2°54.075 65.7 11.5 70 34.1
2008-11-26 09:33:41 51°30.523 2°54.361 64.7 11.3 71 34.7
2008-11-26 09:34:41 51°30.593 2°54.645 65 11.5 68 34.1
2008-11-26 09:35:41 51°30.663 2°54.93 65.8 11.5 68 35.7
2008-11-26 09:36:41 51°30.733 2°55.215 65 11.4 71 36.8
2008-11-26 09:37:41 51°30.802 2°55.499 64.8 11.4 66 37.8
2008-11-26 09:38:41 51°30.872 2°55.785 65.8 11.6 67 38.8
2008-11-26 09:39:41 51°30.943 2°56.071 64.5 11.3 64 35.2
2008-11-26 09:40:41 51°31.014 2°56.356 64.5 11.4 65 33.7
2008-11-26 09:41:41 51°31.085 2°56.642 64.8 11.7 68 34
2008-11-26 09:42:41 51°31.157 2°56.933 66.5 11.6 69 33.2
2008-11-26 09:43:41 51°31.26 2°57.188 45.6 11.4 50 33.5
2008-11-26 09:44:41 51°31.394 2°57.407 42.2 11.5 44 32.3
2008-11-26 09:45:41 51°31.527 2°57.627 43.3 11.4 46 36.1
2008-11-26 09:46:41 51°31.66 2°57.849 43.2 11.6 45 36.3
2008-11-26 09:47:41 51°31.79 2°58.067 43.1 11.2 46 37.4
2008-11-26 09:48:41 51°31.92 2°58.291 44.2 11.6 48 38.7
2008-11-26 09:49:41 51°32.052 2°58.513 40.6 11.5 46 37.6
2008-11-26 09:50:41 51°32.195 2°58.716 38.3 11.4 43 35.5
2008-11-26 09:51:41 51°32.338 2°58.915 37.3 11.5 40 35.6
2008-11-26 09:52:41 51°32.486 2°59.109 33 11.4 36 33.6
2008-11-26 09:53:41 51°32.649 2°59.222 1.7 10.2 1 33.6
2008-11-26 09:54:41 51°32.786 2°59.092 305.6 9.9 305 23
2008-11-26 09:55:41 51°32.892 2°58.877 307.9 10.1 307 14.8
2008-11-26 09:56:41 51°33.004 2°58.659 309.3 10.6 308 17.8
2008-11-26 09:57:41 51°33.117 2°58.432 309.3 11.1 308 16.9
2008-11-26 09:58:41 51°33.238 2°58.205 310.2 11.3 311 19.6
2008-11-26 09:59:41 51°33.357 2°57.974 308.8 11.4 308 22.6
2008-11-26 10:00:41 51°33.479 2°57.741 308.9 11.6 310 25.4
2008-11-26 10:01:41 51°33.602 2°57.507 310 11.6 311 27.5
2008-11-26 10:02:41 51°33.725 2°57.272 309.8 11.4 311 29.1
2008-11-26 10:03:41 51°33.841 2°57.027 303.6 11.4 304 29.8
2008-11-26 10:04:41 51°33.947 2°56.771 302.1 11.5 303 29.1
2008-11-26 10:05:41 51°34.053 2°56.513 302.4 11.3 303 31.1
2008-11-26 10:06:41 51°34.159 2°56.258 303.6 11.5 304 31.3
2008-11-26 10:07:41 51°34.265 2°56 300.9 11.5 302 32.8
2008-11-26 10:08:41 51°34.259 2°55.727 236.5 10.9 235 32.7
2008-11-26 10:09:41 51°34.149 2°55.475 239.1 11.6 238 31.8
2008-11-26 10:10:41 51°34.05 2°55.208 238.8 11.6 243 30.1
2008-11-26 10:11:41 51°33.951 2°54.945 237.6 11.6 244 31.6
2008-11-26 10:12:41 51°33.845 2°54.689 238.7 11.6 234 30.8
2008-11-26 10:13:41 51°33.74 2°54.43 239.1 11.5 233 31.4
2008-11-26 10:14:41 51°33.633 2°54.176 236.8 11.3 228 29.6
2008-11-26 10:15:41 51°33.532 2°53.918 239.2 11.5 238 30.3
2008-11-26 10:16:41 51°33.428 2°53.661 238.2 11.4 236 29.4
2008-11-26 10:17:41 51°33.325 2°53.406 239.7 11.1 239 28.8
2008-11-26 10:18:41 51°33.224 2°53.148 240.1 11.4 243 28.6
2008-11-26 10:19:41 51°33.121 2°52.893 237.4 11.5 233 29.1
2008-11-26 10:20:41 51°33.01 2°52.645 234.5 11.7 234 31.4
2008-11-26 10:21:41 51°32.9 2°52.399 235.3 11.7 231 31.6
2008-11-26 10:22:41 51°32.795 2°52.149 236.4 11.4 234 31.9
2008-11-26 10:23:41 51°32.689 2°51.9 237.6 11.1 237 32.5
2008-11-26 10:24:41 51°32.583 2°51.651 236.3 11.2 230 33
2008-11-26 10:25:41 51°32.476 2°51.401 235.6 11.7 232 31.5
2008-11-26 10:26:41 51°32.371 2°51.153 235.9 11.2 235 30
2008-11-26 10:27:41 51°32.265 2°50.907 236 11.3 235 33.8
2008-11-26 10:28:41 51°32.16 2°50.66 234.3 11.3 227 33.5
2008-11-26 10:29:41 51°32.057 2°50.414 236.6 10.9 236 31.4
2008-11-26 10:30:41 51°31.953 2°50.166 236.9 11.2 239 29.5
2008-11-26 10:31:41 51°31.85 2°49.92 236.9 11.3 235 31.4
2008-11-26 10:32:41 51°31.747 2°49.674 235.8 11.2 242 29.3
2008-11-26 10:33:41 51°31.645 2°49.43 237 11 236 32.2
2008-11-26 10:34:41 51°31.543 2°49.185 236.9 10.9 239 30.3
2008-11-26 10:35:41 51°31.441 2°48.94 236.1 11.1 241 31.6
2008-11-26 10:36:41 51°31.339 2°48.693 236.6 11.1 238 31.7
2008-11-26 10:37:41 51°31.236 2°48.45 236.5 11.2 234 30.7
2008-11-26 10:38:41 51°31.137 2°48.205 236.1 11 236 30.4
2008-11-26 10:39:41 51°31.037 2°47.963 238.8 10.7 241 31.9
2008-11-26 10:40:41 51°31 2°47.689 270.6 10.9 274 30.1
2008-11-26 10:41:41 51°31.057 2°47.408 289.7 11.4 295 31.2
2008-11-26 10:42:41 51°31.181 2°47.184 316.1 11.6 326 30.1
2008-11-26 10:43:41 51°31.367 2°47.075 340.1 12.3 346 31.4
2008-11-26 10:44:41 51°31.568 2°47.02 344.3 11.3 354 31.6
2008-11-26 10:45:41 51°31.75 2°47.009 353.2 10.5 359 29.6
2008-11-26 10:46:41 51°31.928 2°47.013 351.9 10.9 1 32.5
2008-11-26 10:47:41 51°32.109 2°47.009 351 11 1 32.7
2008-11-26 10:48:41 51°32.286 2°47.001 350 10.7 -999 32.5
2008-11-26 10:49:41 51°32.463 2°46.992 349.5 10.7 355 34.7
2008-11-26 10:50:41 51°32.641 2°46.98 348.7 11 357 32.1
2008-11-26 10:51:41 51°32.822 2°46.967 349 10.8 357 35.4
2008-11-26 10:52:41 51°33.005 2°46.95 348.8 11 357 35.2
2008-11-26 10:53:41 51°33.187 2°46.931 347.7 11 354 32.8
2008-11-26 10:54:41 51°33.368 2°46.912 347.5 11 355 34.2
2008-11-26 10:55:41 51°33.546 2°46.896 349.2 10.7 355 30.4
2008-11-26 10:56:41 51°33.723 2°46.879 347.9 10.5 354 33.6
2008-11-26 10:57:41 51°33.901 2°46.86 349.7 10.7 357 32.5
2008-11-26 10:58:41 51°34.085 2°46.857 351.9 11.2 357 29.8
2008-11-26 10:59:41 51°34.274 2°46.855 353 11.2 359 34.7
2008-11-26 11:00:41 51°34.458 2°46.854 352.1 11.2 1 31.5
2008-11-26 11:01:41 51°34.649 2°46.865 0.6 11.6 6 34.2
2008-11-26 11:02:41 51°34.839 2°46.923 6.1 11.8 11 34.8
2008-11-26 11:03:41 51°35.027 2°46.991 6.1 11.6 12 36.5
2008-11-26 11:04:41 51°35.217 2°47.058 5.9 11.9 13 36.3
2008-11-26 11:05:41 51°35.402 2°47.13 9.1 11.1 14 37.2
2008-11-26 11:06:41 51°35.583 2°47.24 21 11.8 26 38.4
2008-11-26 11:07:41 51°35.759 2°47.389 24.6 11.8 27 38.9
2008-11-26 11:08:41 51°35.925 2°47.538 24.2 11.4 29 38.1
2008-11-26 11:09:41 51°36.09 2°47.682 23.9 11.3 27 39.9
2008-11-26 11:10:41 51°36.255 2°47.824 23.3 11.3 29 39
2008-11-26 11:11:41 51°36.421 2°47.965 22.8 11.3 26 40.3
2008-11-26 11:12:41 51°36.588 2°48.106 23.1 11.3 27 40.2
2008-11-26 11:13:41 51°36.754 2°48.247 23.1 11.4 26 39.8
2008-11-26 11:14:41 51°36.92 2°48.39 23.9 11.4 29 39.5
2008-11-26 11:15:41 51°37.089 2°48.529 22.9 11.5 30 40.6
2008-11-26 11:16:41 51°37.256 2°48.67 24 11.4 30 40.3
2008-11-26 11:17:41 51°37.421 2°48.808 24.2 11.1 30 40.7
2008-11-26 11:18:41 51°37.588 2°48.944 22.9 11.5 26 40.4
2008-11-26 11:19:41 51°37.755 2°49.081 22.4 11.2 28 41.3
2008-11-26 11:20:41 51°37.923 2°49.218 23.4 11.2 28 41.1
2008-11-26 11:21:41 51°38.086 2°49.354 23 10.7 28 40.5
2008-11-26 11:22:41 51°38.25 2°49.488 23.3 11.4 28 40.2
2008-11-26 11:23:41 51°38.416 2°49.622 23.2 11.1 26 41.1
2008-11-26 11:24:41 51°38.581 2°49.755 22.9 11.1 27 40.4
2008-11-26 11:25:41 51°38.748 2°49.889 23.1 11.3 27 40.5
2008-11-26 11:26:41 51°38.915 2°50.024 23.2 11.2 28 38.7
2008-11-26 11:27:41 51°39.083 2°50.159 23.9 11.4 27 38.3
2008-11-26 11:28:41 51°39.25 2°50.295 23.3 11.5 27 37.8
2008-11-26 11:29:41 51°39.414 2°50.429 23.4 10.9 24 40
2008-11-26 11:30:41 51°39.582 2°50.564 23.1 11.5 26 38.8
2008-11-26 11:31:41 51°39.747 2°50.707 31.2 11.3 34 41.6
2008-11-26 11:32:41 51°39.855 2°50.953 71.7 11.4 70 37.4
2008-11-26 11:33:41 51°39.815 2°51.204 145.5 9.4 141 34.2
2008-11-26 11:34:41 51°39.673 2°51.37 145.8 11.6 139 34.9
2008-11-26 11:35:41 51°39.567 2°51.64 126.8 12.7 125 35.4
2008-11-26 11:36:41 51°39.441 2°51.889 143.6 12.2 137 35.8
2008-11-26 11:37:41 51°39.287 2°52.094 146.3 12.2 142 37.2
2008-11-26 11:38:41 51°39.133 2°52.292 145.5 11.8 134 34.8
2008-11-26 11:39:41 51°38.986 2°52.493 146.7 11.9 139 30.3
2008-11-26 11:40:41 51°38.84 2°52.699 145.5 11.7 136 35.4
2008-11-26 11:41:41 51°38.697 2°52.902 144.4 11.4 139 37
2008-11-26 11:42:41 51°38.554 2°53.11 145 11.4 140 34.5
2008-11-26 11:43:41 51°38.409 2°53.319 146.4 11.5 143 35.2
2008-11-26 11:44:41 51°38.266 2°53.527 144.6 11.7 138 33.7
2008-11-26 11:45:41 51°38.123 2°53.735 145.9 11.6 144 32.6
2008-11-26 11:46:41 51°37.982 2°53.943 143.8 11.1 144 30.5
2008-11-26 11:47:41 51°37.84 2°54.149 146.1 11.5 135 30.4
2008-11-26 11:48:41 51°37.695 2°54.355 143.7 11.4 135 29.2
2008-11-26 11:49:41 51°37.552 2°54.557 143.4 11.2 135 27.6
2008-11-26 11:50:41 51°37.409 2°54.756 144.2 11.2 144 26.1
2008-11-26 11:51:41 51°37.248 2°54.768 214 9.5 218 24.5
2008-11-26 11:52:41 51°37.155 2°54.543 235 10.6 242 25.2
2008-11-26 11:53:41 51°37.064 2°54.307 235.8 10.5 242 25.1
2008-11-26 11:54:41 51°36.972 2°54.072 236.5 10.4 237 24.4
2008-11-26 11:55:41 51°36.879 2°53.835 235.8 10.6 239 23.9
2008-11-26 11:56:41 51°36.786 2°53.6 234.5 10.6 237 24
2008-11-26 11:57:41 51°36.69 2°53.367 232.9 10.4 234 24.8
2008-11-26 11:58:41 51°36.594 2°53.136 233.7 10.3 235 24.4
2008-11-26 11:59:41 51°36.498 2°52.902 233.6 10.6 245 24.9
2008-11-26 12:00:41 51°36.405 2°52.667 235.5 10.3 241 25.8
2008-11-26 12:01:41 51°36.305 2°52.439 230.5 10.4 230 25.4
2008-11-26 12:02:41 51°36.194 2°52.226 226.3 10.8 230 24.8
2008-11-26 12:03:41 51°36.082 2°52.011 228.4 10.5 223 21
2008-11-26 12:04:41 51°35.974 2°51.794 227.8 10.5 234 27.1
2008-11-26 12:05:41 51°35.864 2°51.579 229.7 10.4 232 26.7
2008-11-26 12:06:41 51°35.756 2°51.363 229.3 10.5 236 27.5
2008-11-26 12:07:41 51°35.648 2°51.149 228.6 10.5 232 27.2
2008-11-26 12:08:41 51°35.538 2°50.933 226.6 10.5 231 26.7
2008-11-26 12:09:41 51°35.404 2°50.784 190.8 9.7 180 24.7
2008-11-26 12:10:41 51°35.255 2°50.923 143.7 11.1 143 28.2
2008-11-26 12:11:41 51°35.106 2°51.116 146.8 11.7 141 31
2008-11-26 12:12:41 51°34.949 2°51.308 147.8 11.6 145 36.4
2008-11-26 12:13:41 51°34.793 2°51.498 146.7 10.9 152 37.3
2008-11-26 12:14:41 51°34.647 2°51.713 140 11.5 137 39.8
2008-11-26 12:15:41 51°34.505 2°51.943 140.7 12.3 134 38.5
2008-11-26 12:16:41 51°34.356 2°52.162 142.5 11.6 143 38.8
2008-11-26 12:17:41 51°34.212 2°52.385 142.1 11.9 137 33.1
2008-11-26 12:18:41 51°34.064 2°52.607 143.4 12.2 140 35.9
2008-11-26 12:19:41 51°33.921 2°52.835 132.6 12.7 124 35.5
2008-11-26 12:20:41 51°33.875 2°53.16 82.8 12.8 72 34
2008-11-26 12:21:41 51°33.986 2°53.449 56.3 12.2 57 34.8
2008-11-26 12:22:41 51°34.095 2°53.718 57.3 11.5 56 33.6
2008-11-26 12:23:41 51°34.194 2°53.964 57.2 11 57 30.9
2008-11-26 12:24:41 51°34.294 2°54.213 57 11.1 56 33.4
2008-11-26 12:25:41 51°34.393 2°54.462 56.7 11.1 57 30.4
2008-11-26 12:26:41 51°34.491 2°54.713 57.1 11.1 59 34.1
2008-11-26 12:27:41 51°34.588 2°54.963 58 11 58 34.1
2008-11-26 12:28:41 51°34.686 2°55.212 56.9 11 56 33.9
2008-11-26 12:29:41 51°34.785 2°55.462 57.2 10.9 57 35.7
2008-11-26 12:30:41 51°34.883 2°55.712 57.2 11.1 60 34.5
2008-11-26 12:31:41 51°34.982 2°55.962 56.5 10.9 59 36.2
2008-11-26 12:32:41 51°35.081 2°56.21 57.2 11 57 36.6
2008-11-26 12:33:41 51°35.18 2°56.46 56.9 11.2 56 35.6
2008-11-26 12:34:41 51°35.278 2°56.711 57.1 11.1 57 36.7
2008-11-26 12:35:41 51°35.378 2°56.959 57.3 11.1 58 34.8
2008-11-26 12:36:41 51°35.476 2°57.208 57.8 11.1 57 34.2
2008-11-26 12:37:41 51°35.566 2°57.464 68.3 10.8 67 37.9
2008-11-26 12:38:41 51°35.58 2°57.738 108.4 10.2 100 37.1
2008-11-26 12:39:41 51°35.496 2°57.959 141.6 9.8 141 36.7
2008-11-26 12:40:41 51°35.354 2°58.074 166.5 9.4 165 34.9
2008-11-26 12:41:41 51°35.192 2°58.157 167.1 10.6 162 34.4
2008-11-26 12:42:41 51°35.022 2°58.256 164.1 10.9 157 32.5
2008-11-26 12:43:41 51°34.854 2°58.367 162 11.2 157 30.8
2008-11-26 12:44:41 51°34.688 2°58.486 159.7 11.3 153 30.2
2008-11-26 12:45:41 51°34.526 2°58.613 157.6 10.3 154 27.8
2008-11-26 12:46:41 51°34.363 2°58.737 160.2 11 157 24.3
2008-11-26 12:47:41 51°34.2 2°58.869 158.5 11.2 153 24.4
2008-11-26 12:48:41 51°34.038 2°59 158 11.2 151 20.7
2008-11-26 12:49:41 51°33.875 2°59.117 163.3 11 157 19.5
2008-11-26 12:50:41 51°33.709 2°59.224 162.7 11.1 161 19.7
2008-11-26 12:51:41 51°33.543 2°59.335 161.5 11 155 17.5
2008-11-26 12:52:41 51°33.379 2°59.439 163 10.1 163 15.3
2008-11-26 12:53:41 51°33.213 2°59.541 163.1 10.7 160 13.7
2008-11-26 12:54:41 51°33.047 2°59.647 165.9 10.6 167 31.8
2008-11-26 12:55:41 51°32.872 2°59.7 175.8 10.7 169 35
2008-11-26 12:56:41 51°32.698 2°59.739 175.7 10.5 175 34.5
2008-11-26 12:57:41 51°32.529 2°59.715 191.8 10 190 35.6
2008-11-26 12:58:41 51°32.364 2°59.672 192.1 10.1 186 35.8
2008-11-26 12:59:41 51°32.2 2°59.634 192.2 9.9 187 32.2
2008-11-26 13:00:41 51°32.037 2°59.593 195.5 9.9 187 31.4
2008-11-26 13:01:41 51°31.875 2°59.542 195.6 9.9 192 30.5
2008-11-26 13:02:41 51°31.713 2°59.493 196 10.2 186 29.6
2008-11-26 13:03:41 51°31.551 2°59.446 194.8 10.3 189 29.7
2008-11-26 13:04:41 51°31.388 2°59.398 194.4 9.8 190 29.3
2008-11-26 13:05:41 51°31.223 2°59.353 194.6 9.9 188 29.3
2008-11-26 13:06:41 51°31.057 2°59.306 193.7 10.3 185 29.3
2008-11-26 13:07:41 51°30.892 2°59.257 193.7 10.3 191 29.6
2008-11-26 13:08:41 51°30.726 2°59.208 194.1 10.2 192 29.4
2008-11-26 13:09:41 51°30.56 2°59.162 193.9 10.5 187 28.4
2008-11-26 13:10:41 51°30.396 2°59.111 195 10.1 192 27.6
2008-11-26 13:11:41 51°30.231 2°59.06 195.2 9.8 193 27.1
2008-11-26 13:12:41 51°30.066 2°59.014 193.6 10.1 183 27.6
2008-11-26 13:13:41 51°29.903 2°58.967 193 10.3 185 27.6
2008-11-26 13:14:41 51°29.74 2°58.914 197.2 10 192 27.6
2008-11-26 13:15:41 51°29.58 2°58.848 199.6 9.9 190 27.6
2008-11-26 13:16:41 51°29.42 2°58.781 197.1 9.9 192 29.3
2008-11-26 13:17:41 51°29.257 2°58.714 197.2 10.1 190 29.7
2008-11-26 13:18:41 51°29.094 2°58.646 197.3 10 198 29.7
2008-11-26 13:19:41 51°28.931 2°58.581 197.3 10.1 193 30.6
2008-11-26 13:20:41 51°28.767 2°58.515 197.1 10 190 31.9
2008-11-26 13:21:41 51°28.605 2°58.446 198 10.5 186 33.2
2008-11-26 13:22:41 51°28.443 2°58.375 196.9 10.1 203 31.7
2008-11-26 13:23:41 51°28.28 2°58.312 195.8 10.1 199 31.3
2008-11-26 13:24:41 51°28.117 2°58.247 196.6 10 198 29.2
2008-11-26 13:25:41 51°27.955 2°58.179 197.8 10.2 195 28.5
2008-11-26 13:26:41 51°27.792 2°58.105 197.8 10.3 196 27.6
2008-11-26 13:27:41 51°27.63 2°58.032 198.2 10 200 26.8
2008-11-26 13:28:41 51°27.468 2°57.96 197.8 10.3 192 24.5
2008-11-26 13:29:41 51°27.305 2°57.885 197.2 9.9 195 21.7
2008-11-26 13:30:41 51°27.145 2°57.807 196.8 10 199 21.1
2008-11-26 13:31:41 51°26.984 2°57.728 197 10 202 20
2008-11-26 13:32:41 51°26.822 2°57.649 197.8 10.2 198 18
2008-11-26 13:33:41 51°26.661 2°57.572 197.3 10.1 197 18.7
2008-11-26 13:34:41 51°26.501 2°57.499 196.1 9.8 195 17.4
2008-11-26 13:35:41 51°26.342 2°57.429 198.2 9.6 196 17.1
2008-11-26 13:36:41 51°26.184 2°57.355 195.1 10 201 16.8
2008-11-26 13:37:41 51°26.027 2°57.286 196.8 10 196 18.8
2008-11-26 13:38:41 51°25.868 2°57.213 197 10.1 192 20
2008-11-26 13:39:41 51°25.712 2°57.125 203.1 10 205 22.4
2008-11-26 13:40:41 51°25.559 2°57.023 203 10 205 24.5
2008-11-26 13:41:41 51°25.406 2°56.912 206.1 10.2 203 25.6
2008-11-26 13:42:41 51°25.253 2°56.798 206.5 10.3 210 26.4
2008-11-26 13:43:41 51°25.097 2°56.69 204.4 10.5 204 26
2008-11-26 13:44:41 51°24.944 2°56.577 204.7 10.2 205 25.7
2008-11-26 13:45:41 51°24.788 2°56.469 202.2 10.3 201 25.4
2008-11-26 13:46:41 51°24.635 2°56.361 203.8 10.2 204 24.5
2008-11-26 13:47:41 51°24.482 2°56.245 209.7 9.8 210 23.9
2008-11-26 13:48:41 51°24.336 2°56.126 208.5 10 204 24
2008-11-26 13:49:41 51°24.192 2°56.003 208.7 9.6 215 23.1
2008-11-26 13:50:41 51°24.048 2°55.878 209.7 9.9 213 21.2
2008-11-26 13:51:41 51°23.905 2°55.752 208.9 10 214 21
2008-11-26 13:52:41 51°23.761 2°55.627 208 9.7 209 18.8
2008-11-26 13:53:41 51°23.615 2°55.505 206.8 10 207 18.5
2008-11-26 13:54:41 51°23.467 2°55.386 206.9 10 206 20
2008-11-26 13:55:41 51°23.315 2°55.272 205 10 203 18.8
2008-11-26 13:56:41 51°23.155 2°55.175 200.8 10.7 198 20.7
2008-11-26 13:57:41 51°22.994 2°55.076 202.9 10.3 201 21.1
2008-11-26 13:58:41 51°22.833 2°54.978 201.7 10.1 205 20.9
2008-11-26 13:59:41 51°22.673 2°54.873 203.6 10.3 200 21.3
2008-11-26 14:00:41 51°22.511 2°54.766 201.9 10.7 202 20.5
2008-11-26 14:01:41 51°22.346 2°54.659 201.5 10.7 200 19.9
2008-11-26 14:02:41 51°22.18 2°54.554 201.9 10.9 203 20.1
2008-11-26 14:03:41 51°22.013 2°54.451 201.6 10.7 202 20.1
2008-11-26 14:04:41 51°21.845 2°54.35 200.8 11 204 18.8
2008-11-26 14:05:41 51°21.675 2°54.249 200.3 10.6 200 18.4
2008-11-26 14:06:41 51°21.506 2°54.145 202.5 10.7 202 18.3
2008-11-26 14:07:41 51°21.336 2°54.043 200.2 11 201 18
2008-11-26 14:08:41 51°21.168 2°53.936 201 10.6 203 18
2008-11-26 14:09:41 51°20.999 2°53.84 200.9 10.5 199 17.9
2008-11-26 14:10:41 51°20.831 2°53.748 198.7 10.3 195 17.8
2008-11-26 14:11:41 51°20.664 2°53.659 199 10.5 199 17.6
2008-11-26 14:12:41 51°20.499 2°53.565 199.4 10.4 196 17.5
2008-11-26 14:13:41 51°20.333 2°53.467 201.8 10.3 201 17.3
2008-11-26 14:14:41 51°20.167 2°53.375 200.7 10.4 205 17.3
2008-11-26 14:15:41 51°20.001 2°53.282 198.1 10.5 195 16.9
2008-11-26 14:16:41 51°19.832 2°53.185 198.8 10.7 202 16.4
2008-11-26 14:17:41 51°19.66 2°53.09 196.8 10.9 196 15.8
2008-11-26 14:18:41 51°19.491 2°52.989 197.3 10.8 201 15.3
2008-11-26 14:19:41 51°19.316 2°52.904 193.6 11 191 14.7
2008-11-26 14:20:41 51°19.139 2°52.827 194.2 10.9 197 14.2
2008-11-26 14:21:41 51°18.962 2°52.756 193 11.1 192 13.4
2008-11-26 14:22:41 51°18.789 2°52.681 195.8 11 199 13.1
2008-11-26 14:23:41 51°18.615 2°52.6 195.1 11 196 12.6
2008-11-26 14:24:41 51°18.441 2°52.522 194.7 10.6 192 12.4
2008-11-26 14:25:41 51°18.265 2°52.459 191.3 11.2 196 11.9
2008-11-26 14:26:41 51°18.087 2°52.401 190.3 11.1 193 11.6
2008-11-26 14:27:41 51°17.906 2°52.374 182.4 10.4 181 11.6
2008-11-26 14:28:41 51°17.725 2°52.356 182.8 10.5 182 11.4
2008-11-26 14:29:41 51°17.543 2°52.337 182.8 11 183 11.4
2008-11-26 14:30:41 51°17.361 2°52.326 180.8 11.2 183 11.3
2008-11-26 14:31:41 51°17.177 2°52.328 173.4 11 172 11.2
2008-11-26 14:32:41 51°16.999 2°52.398 163.8 10.9 163 10.7
2008-11-26 14:33:41 51°16.83 2°52.507 156.7 10.7 152 11
2008-11-26 14:34:41 51°16.674 2°52.662 148 11 146 11.7
2008-11-26 14:35:41 51°16.525 2°52.825 148.3 10.5 145 12.7
2008-11-26 14:36:41 51°16.385 2°52.983 148 10.2 146 12.7
2008-11-26 14:37:41 51°16.241 2°53.136 147.8 10.6 147 12.7
2008-11-26 14:38:41 51°16.095 2°53.284 149.2 10.3 149 12.7
2008-11-26 14:39:41 51°15.948 2°53.432 148.2 10.4 148 12.2
2008-11-26 14:40:41 51°15.801 2°53.579 149.2 10.5 152 12.1
2008-11-26 14:41:41 51°15.65 2°53.715 148.7 10.9 150 12.4
2008-11-26 14:42:41 51°15.501 2°53.852 147.2 10.5 147 12.4
2008-11-26 14:43:41 51°15.352 2°53.997 147 10.5 150 11.8
2008-11-26 14:44:41 51°15.204 2°54.148 146.5 10.9 144 11.1
2008-11-26 14:45:41 51°15.045 2°54.309 146.8 11.9 146 9.6
2008-11-26 14:46:41 51°14.876 2°54.471 151.3 12.1 150 10.2
2008-11-26 14:47:41 51°14.706 2°54.64 145.4 12 147 10.5
2008-11-26 14:48:41 51°14.541 2°54.812 142.6 11.9 143 10.7
2008-11-26 14:49:41 51°14.396 2°55.026 127.3 12 128 11.2
2008-11-26 14:50:41 51°14.262 2°55.258 132.8 11.9 134 11.5